sensor_id;sensor_type;location;lat;lon;timestamp;pressure;altitude;pressure_sealevel;temperature;humidity
72359;BME280;60317;48.880;-0.862;2022-12-19T00:00:03;100109.56;;;18.12;36.56
72359;BME280;60317;48.880;-0.862;2022-12-19T00:02:34;100121.13;;;18.13;36.27
72359;BME280;60317;48.880;-0.862;2022-12-19T00:05:00;100122.94;;;18.12;36.53
72359;BME280;60317;48.880;-0.862;2022-12-19T00:07:26;100130.84;;;18.14;36.50
72359;BME280;60317;48.880;-0.862;2022-12-19T00:09:53;100124.63;;;18.13;36.53
72359;BME280;60317;48.880;-0.862;2022-12-19T00:15:19;100109.56;;;18.12;36.47
72359;BME280;60317;48.880;-0.862;2022-12-19T00:17:46;100106.91;;;18.12;36.44
72359;BME280;60317;48.880;-0.862;2022-12-19T00:20:12;100111.41;;;18.12;36.64
72359;BME280;60317;48.880;-0.862;2022-12-19T00:22:43;100121.25;;;18.11;36.57
72359;BME280;60317;48.880;-0.862;2022-12-19T00:25:09;100120.28;;;18.12;36.62
72359;BME280;60317;48.880;-0.862;2022-12-19T00:27:37;100112.25;;;18.12;36.41
72359;BME280;60317;48.880;-0.862;2022-12-19T00:30:04;100108.59;;;18.13;36.33
72359;BME280;60317;48.880;-0.862;2022-12-19T00:32:30;100100.72;;;18.12;36.43
72359;BME280;60317;48.880;-0.862;2022-12-19T00:34:57;100111.25;;;18.13;36.28
72359;BME280;60317;48.880;-0.862;2022-12-19T00:37:26;100113.94;;;18.13;36.22
72359;BME280;60317;48.880;-0.862;2022-12-19T00:39:52;100111.41;;;18.12;36.51
72359;BME280;60317;48.880;-0.862;2022-12-19T00:42:19;100111.41;;;18.12;36.63
72359;BME280;60317;48.880;-0.862;2022-12-19T00:44:47;100107.75;;;18.13;36.39
72359;BME280;60317;48.880;-0.862;2022-12-19T00:47:13;100109.56;;;18.12;36.54
72359;BME280;60317;48.880;-0.862;2022-12-19T00:49:39;100108.72;;;18.12;36.63
72359;BME280;60317;48.880;-0.862;2022-12-19T00:52:07;100107.88;;;18.11;36.68
72359;BME280;60317;48.880;-0.862;2022-12-19T00:54:33;100100.72;;;18.12;36.65
72359;BME280;60317;48.880;-0.862;2022-12-19T00:57:00;100098.03;;;18.12;36.58
72359;BME280;60317;48.880;-0.862;2022-12-19T00:59:26;100095.38;;;18.12;36.48
72359;BME280;60317;48.880;-0.862;2022-12-19T01:01:54;100082.84;;;18.12;36.56
72359;BME280;60317;48.880;-0.862;2022-12-19T01:04:22;100074.81;;;18.12;36.69
72359;BME280;60317;48.880;-0.862;2022-12-19T01:06:54;100076.63;;;18.12;36.64
72359;BME280;60317;48.880;-0.862;2022-12-19T01:09:27;100073.97;;;18.12;36.64
72359;BME280;60317;48.880;-0.862;2022-12-19T01:11:53;100074.81;;;18.12;36.58
72359;BME280;60317;48.880;-0.862;2022-12-19T01:14:20;100081.84;;;18.13;36.69
72359;BME280;60317;48.880;-0.862;2022-12-19T01:16:48;100077.47;;;18.12;36.75
72359;BME280;60317;48.880;-0.862;2022-12-19T01:19:16;100072.97;;;18.13;36.74
72359;BME280;60317;48.880;-0.862;2022-12-19T01:21:42;100085.50;;;18.12;36.48
72359;BME280;60317;48.880;-0.862;2022-12-19T01:24:09;100073.97;;;18.12;36.76
72359;BME280;60317;48.880;-0.862;2022-12-19T01:26:36;100075.66;;;18.13;36.51
72359;BME280;60317;48.880;-0.862;2022-12-19T01:29:03;100081.13;;;18.11;36.56
72359;BME280;60317;48.880;-0.862;2022-12-19T01:31:29;100074.81;;;18.12;36.64
72359;BME280;60317;48.880;-0.862;2022-12-19T01:33:57;100072.13;;;18.12;36.80
72359;BME280;60317;48.880;-0.862;2022-12-19T01:36:25;100077.47;;;18.12;36.81
72359;BME280;60317;48.880;-0.862;2022-12-19T01:38:53;100061.44;;;18.12;36.68
72359;BME280;60317;48.880;-0.862;2022-12-19T01:41:20;100073.13;;;18.11;36.76
72359;BME280;60317;48.880;-0.862;2022-12-19T01:43:54;100079.31;;;18.12;36.91
72359;BME280;60317;48.880;-0.862;2022-12-19T01:46:22;100075.66;;;18.13;36.97
72359;BME280;60317;48.880;-0.862;2022-12-19T01:48:53;100085.50;;;18.12;36.88
72359;BME280;60317;48.880;-0.862;2022-12-19T01:51:20;100072.13;;;18.12;37.02
72359;BME280;60317;48.880;-0.862;2022-12-19T01:53:49;100089.88;;;18.13;36.96
72359;BME280;60317;48.880;-0.862;2022-12-19T01:56:16;100073.97;;;18.12;37.01
72359;BME280;60317;48.880;-0.862;2022-12-19T01:58:43;100073.13;;;18.11;37.04
72359;BME280;60317;48.880;-0.862;2022-12-19T02:01:10;100079.16;;;18.13;37.07
72359;BME280;60317;48.880;-0.862;2022-12-19T02:03:37;100069.47;;;18.12;37.02
72359;BME280;60317;48.880;-0.862;2022-12-19T02:06:04;100066.78;;;18.12;37.16
72359;BME280;60317;48.880;-0.862;2022-12-19T02:08:31;100073.97;;;18.12;37.39
72359;BME280;60317;48.880;-0.862;2022-12-19T02:11:00;100084.53;;;18.13;37.30
72359;BME280;60317;48.880;-0.862;2022-12-19T02:13:27;100085.63;;;18.11;37.35
72359;BME280;60317;48.880;-0.862;2022-12-19T02:15:54;100080.16;;;18.12;37.23
72359;BME280;60317;48.880;-0.862;2022-12-19T02:18:26;100073.13;;;18.11;37.24
72359;BME280;60317;48.880;-0.862;2022-12-19T02:21:03;100082.00;;;18.12;37.51
72359;BME280;60317;48.880;-0.862;2022-12-19T02:31:08;100066.78;;;18.12;37.62
72359;BME280;60317;48.880;-0.862;2022-12-19T02:33:43;100071.41;;;18.10;37.50
72359;BME280;60317;48.880;-0.862;2022-12-19T02:36:14;100060.69;;;18.10;37.69
72359;BME280;60317;48.880;-0.862;2022-12-19T02:38:45;100075.78;;;18.11;37.57
72359;BME280;60317;48.880;-0.862;2022-12-19T02:41:15;100070.44;;;18.11;37.66
72359;BME280;60317;48.880;-0.862;2022-12-19T02:43:45;100067.78;;;18.11;37.65
72359;BME280;60317;48.880;-0.862;2022-12-19T02:46:17;100068.63;;;18.12;37.63
72359;BME280;60317;48.880;-0.862;2022-12-19T02:48:44;100063.38;;;18.10;37.82
72359;BME280;60317;48.880;-0.862;2022-12-19T02:51:10;100067.03;;;18.09;37.81
72359;BME280;60317;48.880;-0.862;2022-12-19T02:53:37;100075.78;;;18.11;37.63
72359;BME280;60317;48.880;-0.862;2022-12-19T02:56:08;100084.78;;;18.10;37.67
72359;BME280;60317;48.880;-0.862;2022-12-19T02:58:42;100076.75;;;18.10;37.78
72359;BME280;60317;48.880;-0.862;2022-12-19T03:01:18;100084.78;;;18.10;37.87
72359;BME280;60317;48.880;-0.862;2022-12-19T03:03:53;100073.97;;;18.12;38.03
72359;BME280;60317;48.880;-0.862;2022-12-19T03:06:25;100059.75;;;18.11;37.76
72359;BME280;60317;48.880;-0.862;2022-12-19T03:08:57;100054.50;;;18.10;38.03
72359;BME280;60317;48.880;-0.862;2022-12-19T03:11:27;100061.53;;;18.11;37.85
72359;BME280;60317;48.880;-0.862;2022-12-19T03:13:55;100054.41;;;18.11;37.99
72359;BME280;60317;48.880;-0.862;2022-12-19T03:16:24;100070.44;;;18.11;37.93
72359;BME280;60317;48.880;-0.862;2022-12-19T03:18:51;100058.03;;;18.10;37.82
72359;BME280;60317;48.880;-0.862;2022-12-19T03:21:19;100059.84;;;18.10;38.06
72359;BME280;60317;48.880;-0.862;2022-12-19T03:23:46;100059.75;;;18.11;38.03
72359;BME280;60317;48.880;-0.862;2022-12-19T03:26:14;100070.44;;;18.11;38.07
72359;BME280;60317;48.880;-0.862;2022-12-19T03:28:43;100072.25;;;18.11;38.06
72359;BME280;60317;48.880;-0.862;2022-12-19T03:31:13;100063.38;;;18.10;38.07
72359;BME280;60317;48.880;-0.862;2022-12-19T03:36:47;100062.41;;;18.11;38.09
72359;BME280;60317;48.880;-0.862;2022-12-19T03:39:14;100059.84;;;18.10;38.05
72359;BME280;60317;48.880;-0.862;2022-12-19T03:41:42;100053.66;;;18.09;38.08
72359;BME280;60317;48.880;-0.862;2022-12-19T03:44:10;100058.88;;;18.11;38.31
72359;BME280;60317;48.880;-0.862;2022-12-19T03:46:37;100050.00;;;18.10;38.07
72359;BME280;60317;48.880;-0.862;2022-12-19T03:49:06;100051.84;;;18.10;38.37
72359;BME280;60317;48.880;-0.862;2022-12-19T03:51:35;100053.66;;;18.09;38.24
72359;BME280;60317;48.880;-0.862;2022-12-19T03:54:07;100058.03;;;18.10;38.25
72359;BME280;60317;48.880;-0.862;2022-12-19T03:56:38;100057.19;;;18.10;38.45
72359;BME280;60317;48.880;-0.862;2022-12-19T03:59:07;100053.66;;;18.09;38.41
72359;BME280;60317;48.880;-0.862;2022-12-19T04:01:49;100051.84;;;18.10;38.52
72359;BME280;60317;48.880;-0.862;2022-12-19T04:04:17;100043.81;;;18.10;38.50
72359;BME280;60317;48.880;-0.862;2022-12-19T04:06:44;100040.28;;;18.09;38.47
72359;BME280;60317;48.880;-0.862;2022-12-19T04:09:12;100035.94;;;18.08;38.38
72359;BME280;60317;48.880;-0.862;2022-12-19T04:11:46;100034.94;;;18.09;38.45
72359;BME280;60317;48.880;-0.862;2022-12-19T04:16:48;100023.50;;;18.07;38.77
72359;BME280;60317;48.880;-0.862;2022-12-19T04:19:17;100033.13;;;18.10;38.47
72359;BME280;60317;48.880;-0.862;2022-12-19T04:21:45;100034.09;;;18.09;38.69
72359;BME280;60317;48.880;-0.862;2022-12-19T04:24:16;100041.28;;;18.08;38.66
72359;BME280;60317;48.880;-0.862;2022-12-19T04:26:45;100049.31;;;18.08;38.65
72359;BME280;60317;48.880;-0.862;2022-12-19T04:29:12;100038.59;;;18.08;38.52
72359;BME280;60317;48.880;-0.862;2022-12-19T04:31:40;100046.63;;;18.08;38.56
72359;BME280;60317;48.880;-0.862;2022-12-19T04:34:06;100046.63;;;18.08;38.74
72359;BME280;60317;48.880;-0.862;2022-12-19T04:36:32;100045.78;;;18.08;38.93
72359;BME280;60317;48.880;-0.862;2022-12-19T04:38:59;100059.16;;;18.08;38.79
72359;BME280;60317;48.880;-0.862;2022-12-19T04:41:26;100051.97;;;18.08;38.80
72359;BME280;60317;48.880;-0.862;2022-12-19T04:43:53;100057.31;;;18.08;38.79
72359;BME280;60317;48.880;-0.862;2022-12-19T04:46:19;100049.31;;;18.08;38.79
72359;BME280;60317;48.880;-0.862;2022-12-19T04:48:46;100049.31;;;18.08;38.70
72359;BME280;60317;48.880;-0.862;2022-12-19T04:51:12;100042.22;;;18.07;38.74
72359;BME280;60317;48.880;-0.862;2022-12-19T04:53:38;100044.78;;;18.09;38.65
72359;BME280;60317;48.880;-0.862;2022-12-19T04:56:05;100052.09;;;18.07;38.62
72359;BME280;60317;48.880;-0.862;2022-12-19T04:58:40;100047.47;;;18.09;38.62
72359;BME280;60317;48.880;-0.862;2022-12-19T05:01:07;100051.97;;;18.08;38.81
72359;BME280;60317;48.880;-0.862;2022-12-19T05:03:34;100047.56;;;18.07;38.69
72359;BME280;60317;48.880;-0.862;2022-12-19T05:06:02;100054.66;;;18.08;38.75
72359;BME280;60317;48.880;-0.862;2022-12-19T05:08:29;100048.47;;;18.08;38.69
72359;BME280;60317;48.880;-0.862;2022-12-19T05:10:57;100050.16;;;18.09;38.72
72359;BME280;60317;48.880;-0.862;2022-12-19T05:16:03;100041.53;;;18.05;39.02
72359;BME280;60317;48.880;-0.862;2022-12-19T05:18:31;100043.22;;;18.06;38.90
72359;BME280;60317;48.880;-0.862;2022-12-19T05:20:57;100035.19;;;18.06;38.94
72359;BME280;60317;48.880;-0.862;2022-12-19T05:23:24;100046.75;;;18.07;38.90
72359;BME280;60317;48.880;-0.862;2022-12-19T05:25:50;100047.56;;;18.07;39.10
72359;BME280;60317;48.880;-0.862;2022-12-19T05:28:17;100053.91;;;18.06;39.16
72359;BME280;60317;48.880;-0.862;2022-12-19T05:30:44;100050.25;;;18.07;39.12
72359;BME280;60317;48.880;-0.862;2022-12-19T05:33:18;100052.94;;;18.07;39.14
72359;BME280;60317;48.880;-0.862;2022-12-19T05:35:45;100056.59;;;18.06;39.20
72359;BME280;60317;48.880;-0.862;2022-12-19T05:38:15;100049.56;;;18.05;39.22
72359;BME280;60317;48.880;-0.862;2022-12-19T05:40:42;100051.38;;;18.05;39.22
72359;BME280;60317;48.880;-0.862;2022-12-19T05:43:08;100053.06;;;18.06;39.28
72359;BME280;60317;48.880;-0.862;2022-12-19T05:48:31;100061.09;;;18.06;39.24
72359;BME280;60317;48.880;-0.862;2022-12-19T05:50:58;100056.59;;;18.06;39.44
72359;BME280;60317;48.880;-0.862;2022-12-19T05:53:24;100062.94;;;18.05;39.29
72359;BME280;60317;48.880;-0.862;2022-12-19T05:55:51;100055.75;;;18.06;39.31
72359;BME280;60317;48.880;-0.862;2022-12-19T05:58:18;100065.59;;;18.05;39.37
72359;BME280;60317;48.880;-0.862;2022-12-19T06:00:44;100063.91;;;18.04;39.55
72359;BME280;60317;48.880;-0.862;2022-12-19T06:03:10;100077.28;;;18.04;39.59
72359;BME280;60317;48.880;-0.862;2022-12-19T06:05:39;100063.03;;;18.04;39.37
72359;BME280;60317;48.880;-0.862;2022-12-19T06:08:05;100055.88;;;18.04;39.43
72359;BME280;60317;48.880;-0.862;2022-12-19T06:10:31;100051.38;;;18.05;39.30
72359;BME280;60317;48.880;-0.862;2022-12-19T06:12:58;100056.84;;;18.03;39.63
72359;BME280;60317;48.880;-0.862;2022-12-19T06:15:24;100050.53;;;18.04;39.58
72359;BME280;60317;48.880;-0.862;2022-12-19T06:17:51;100050.53;;;18.04;39.45
72359;BME280;60317;48.880;-0.862;2022-12-19T06:20:18;100046.88;;;18.05;39.39
72359;BME280;60317;48.880;-0.862;2022-12-19T06:22:45;100050.53;;;18.04;39.75
72359;BME280;60317;48.880;-0.862;2022-12-19T06:25:12;100045.19;;;18.04;39.59
72359;BME280;60317;48.880;-0.862;2022-12-19T06:27:38;100047.88;;;18.04;39.72
72359;BME280;60317;48.880;-0.862;2022-12-19T06:30:05;100045.19;;;18.04;39.73
72359;BME280;60317;48.880;-0.862;2022-12-19T06:32:33;100044.31;;;18.04;39.70
72359;BME280;60317;48.880;-0.862;2022-12-19T06:35:03;100040.78;;;18.03;39.64
72359;BME280;60317;48.880;-0.862;2022-12-19T06:37:30;100038.97;;;18.04;39.64
72359;BME280;60317;48.880;-0.862;2022-12-19T06:39:58;100048.81;;;18.03;39.73
72359;BME280;60317;48.880;-0.862;2022-12-19T06:42:24;100042.50;;;18.04;39.59
72359;BME280;60317;48.880;-0.862;2022-12-19T06:44:51;100038.97;;;18.04;39.63
72359;BME280;60317;48.880;-0.862;2022-12-19T06:47:17;100038.97;;;18.04;39.74
72359;BME280;60317;48.880;-0.862;2022-12-19T06:49:44;100039.09;;;18.02;39.84
72359;BME280;60317;48.880;-0.862;2022-12-19T06:52:10;100037.28;;;18.03;39.79
72359;BME280;60317;48.880;-0.862;2022-12-19T06:54:37;100035.59;;;18.02;39.83
72359;BME280;60317;48.880;-0.862;2022-12-19T06:57:05;100044.47;;;18.02;39.93
72359;BME280;60317;48.880;-0.862;2022-12-19T06:59:31;100054.31;;;18.02;39.66
72359;BME280;60317;48.880;-0.862;2022-12-19T07:01:58;100055.16;;;18.02;39.93
72359;BME280;60317;48.880;-0.862;2022-12-19T07:04:27;100052.47;;;18.02;40.00
72359;BME280;60317;48.880;-0.862;2022-12-19T07:06:54;100059.66;;;18.02;39.94
72359;BME280;60317;48.880;-0.862;2022-12-19T07:09:21;100067.69;;;18.02;40.08
72359;BME280;60317;48.880;-0.862;2022-12-19T07:11:47;100074.72;;;18.03;40.12
72359;BME280;60317;48.880;-0.862;2022-12-19T07:14:15;100071.34;;;18.01;40.06
72359;BME280;60317;48.880;-0.862;2022-12-19T07:16:41;100068.53;;;18.02;40.13
72359;BME280;60317;48.880;-0.862;2022-12-19T07:19:07;100075.69;;;18.02;40.13
72359;BME280;60317;48.880;-0.862;2022-12-19T07:21:48;100078.97;;;18.05;40.03
72359;BME280;60317;48.880;-0.862;2022-12-19T07:24:15;100079.22;;;18.02;40.11
72359;BME280;60317;48.880;-0.862;2022-12-19T07:26:41;100065.13;;;18.00;40.33
72359;BME280;60317;48.880;-0.862;2022-12-19T07:29:08;100062.34;;;18.02;40.14
72359;BME280;60317;48.880;-0.862;2022-12-19T07:31:38;100073.03;;;18.02;40.45
72359;BME280;60317;48.880;-0.862;2022-12-19T07:34:05;100081.06;;;18.02;40.34
72359;BME280;60317;48.880;-0.862;2022-12-19T07:36:31;100080.19;;;18.01;40.53
72359;BME280;60317;48.880;-0.862;2022-12-19T07:38:57;100090.91;;;18.01;40.25
72359;BME280;60317;48.880;-0.862;2022-12-19T07:41:24;100080.31;;;18.00;40.41
72359;BME280;60317;48.880;-0.862;2022-12-19T07:43:50;100073.13;;;18.00;40.32
72359;BME280;60317;48.880;-0.862;2022-12-19T07:46:16;100074.00;;;18.01;40.49
72359;BME280;60317;48.880;-0.862;2022-12-19T07:48:44;100080.31;;;18.00;40.39
72359;BME280;60317;48.880;-0.862;2022-12-19T07:51:10;100078.47;;;18.00;40.43
72359;BME280;60317;48.880;-0.862;2022-12-19T07:53:37;100074.97;;;18.00;40.50
72359;BME280;60317;48.880;-0.862;2022-12-19T07:56:03;100080.31;;;18.00;40.58
72359;BME280;60317;48.880;-0.862;2022-12-19T07:58:30;100082.88;;;18.01;40.38
72359;BME280;60317;48.880;-0.862;2022-12-19T08:00:57;100083.84;;;18.00;40.57
72359;BME280;60317;48.880;-0.862;2022-12-19T08:03:24;100086.50;;;18.00;40.53
72359;BME280;60317;48.880;-0.862;2022-12-19T08:05:51;100086.50;;;18.00;40.55
72359;BME280;60317;48.880;-0.862;2022-12-19T08:08:18;100091.84;;;18.00;40.53
72359;BME280;60317;48.880;-0.862;2022-12-19T08:10:44;100089.19;;;18.00;40.50
72359;BME280;60317;48.880;-0.862;2022-12-19T08:13:10;100086.50;;;18.00;40.53
72359;BME280;60317;48.880;-0.862;2022-12-19T08:15:37;100075.81;;;18.00;40.49
72359;BME280;60317;48.880;-0.862;2022-12-19T08:18:03;100091.84;;;18.00;40.66
72359;BME280;60317;48.880;-0.862;2022-12-19T08:20:29;100073.28;;;17.99;40.54
72359;BME280;60317;48.880;-0.862;2022-12-19T08:22:57;100079.47;;;17.99;40.74
72359;BME280;60317;48.880;-0.862;2022-12-19T08:25:23;100086.50;;;18.00;40.56
72359;BME280;60317;48.880;-0.862;2022-12-19T08:27:50;100085.66;;;18.00;40.74
72359;BME280;60317;48.880;-0.862;2022-12-19T08:30:16;100091.00;;;18.00;40.62
72359;BME280;60317;48.880;-0.862;2022-12-19T08:32:43;100095.50;;;17.99;40.83
72359;BME280;60317;48.880;-0.862;2022-12-19T08:35:09;100086.50;;;18.00;40.81
72359;BME280;60317;48.880;-0.862;2022-12-19T08:37:37;100097.19;;;18.00;40.53
72359;BME280;60317;48.880;-0.862;2022-12-19T08:40:05;100097.19;;;18.00;40.70
72359;BME280;60317;48.880;-0.862;2022-12-19T08:42:31;100114.22;;;17.99;40.83
72359;BME280;60317;48.880;-0.862;2022-12-19T08:44:57;100105.38;;;17.99;40.81
72359;BME280;60317;48.880;-0.862;2022-12-19T08:47:24;100098.19;;;17.99;40.68
72359;BME280;60317;48.880;-0.862;2022-12-19T08:49:50;100098.19;;;17.99;40.75
72359;BME280;60317;48.880;-0.862;2022-12-19T08:52:16;100103.44;;;18.01;40.73
72359;BME280;60317;48.880;-0.862;2022-12-19T08:54:43;100111.56;;;17.99;40.67
72359;BME280;60317;48.880;-0.862;2022-12-19T08:57:10;100105.22;;;18.00;40.67
72359;BME280;60317;48.880;-0.862;2022-12-19T08:59:37;100108.78;;;18.01;40.84
72359;BME280;60317;48.880;-0.862;2022-12-19T09:02:04;100100.75;;;18.01;40.64
72359;BME280;60317;48.880;-0.862;2022-12-19T09:04:31;100107.06;;;18.00;40.75
72359;BME280;60317;48.880;-0.862;2022-12-19T09:07:18;100111.56;;;17.99;40.69
72359;BME280;60317;48.880;-0.862;2022-12-19T09:09:44;100109.72;;;18.00;40.89
72359;BME280;60317;48.880;-0.862;2022-12-19T09:12:12;100103.53;;;17.99;40.88
72359;BME280;60317;48.880;-0.862;2022-12-19T09:14:39;100101.59;;;18.01;40.95
72359;BME280;60317;48.880;-0.862;2022-12-19T09:17:05;100110.56;;;18.00;40.70
72359;BME280;60317;48.880;-0.862;2022-12-19T09:19:32;100103.53;;;17.99;40.77
72359;BME280;60317;48.880;-0.862;2022-12-19T09:21:58;100096.34;;;18.00;40.92
72359;BME280;60317;48.880;-0.862;2022-12-19T09:24:24;100095.50;;;17.99;40.95
72359;BME280;60317;48.880;-0.862;2022-12-19T09:26:51;100104.28;;;18.01;40.77
72359;BME280;60317;48.880;-0.862;2022-12-19T09:29:19;100093.69;;;18.00;40.98
72359;BME280;60317;48.880;-0.862;2022-12-19T09:31:47;100095.50;;;17.99;40.88
72359;BME280;60317;48.880;-0.862;2022-12-19T09:34:22;100098.19;;;17.99;40.97
72359;BME280;60317;48.880;-0.862;2022-12-19T09:36:50;100085.66;;;18.00;41.05
72359;BME280;60317;48.880;-0.862;2022-12-19T09:39:16;100081.16;;;18.00;41.10
72359;BME280;60317;48.880;-0.862;2022-12-19T09:41:51;100067.78;;;18.00;40.76
72359;BME280;60317;48.880;-0.862;2022-12-19T09:44:23;100062.44;;;18.00;40.91
72359;BME280;60317;48.880;-0.862;2022-12-19T09:46:54;100055.41;;;17.99;41.07
72359;BME280;60317;48.880;-0.862;2022-12-19T09:49:21;100074.00;;;18.01;40.96
72359;BME280;60317;48.880;-0.862;2022-12-19T09:51:51;100064.41;;;17.98;40.95
72359;BME280;60317;48.880;-0.862;2022-12-19T09:54:19;100083.00;;;18.00;41.25
72359;BME280;60317;48.880;-0.862;2022-12-19T09:56:49;100073.13;;;18.00;41.25
72359;BME280;60317;48.880;-0.862;2022-12-19T09:59:18;100084.81;;;17.99;41.24
72359;BME280;60317;48.880;-0.862;2022-12-19T10:01:56;100082.13;;;17.99;41.33
72359;BME280;60317;48.880;-0.862;2022-12-19T10:04:25;100068.78;;;17.99;41.22
72359;BME280;60317;48.880;-0.862;2022-12-19T10:06:53;100070.59;;;17.99;41.39
72359;BME280;60317;48.880;-0.862;2022-12-19T10:09:40;100070.47;;;18.00;41.42
72359;BME280;60317;48.880;-0.862;2022-12-19T10:12:30;100061.75;;;17.98;41.25
72359;BME280;60317;48.880;-0.862;2022-12-19T10:15:15;100048.38;;;17.98;41.25
72359;BME280;60317;48.880;-0.862;2022-12-19T10:17:53;100049.34;;;17.97;41.27
72359;BME280;60317;48.880;-0.862;2022-12-19T10:20:23;100049.34;;;17.97;41.29
72359;BME280;60317;48.880;-0.862;2022-12-19T10:22:55;100044.84;;;17.98;41.59
72359;BME280;60317;48.880;-0.862;2022-12-19T10:28:23;99987.84;;;17.97;41.63
72359;BME280;60317;48.880;-0.862;2022-12-19T10:30:57;99996.72;;;17.98;41.34
72359;BME280;60317;48.880;-0.862;2022-12-19T10:33:41;100021.63;;;17.98;41.56
72359;BME280;60317;48.880;-0.862;2022-12-19T10:36:10;100035.00;;;17.98;41.62
72359;BME280;60317;48.880;-0.862;2022-12-19T10:38:37;100056.50;;;17.97;41.81
72359;BME280;60317;48.880;-0.862;2022-12-19T10:41:18;100065.41;;;17.97;41.74
72359;BME280;60317;48.880;-0.862;2022-12-19T10:43:47;100054.69;;;17.97;41.58
72359;BME280;60317;48.880;-0.862;2022-12-19T10:46:18;100070.75;;;17.97;41.70
72359;BME280;60317;48.880;-0.862;2022-12-19T10:48:48;100078.75;;;17.97;41.68
72359;BME280;60317;48.880;-0.862;2022-12-19T10:51:18;100087.63;;;17.98;41.75
72359;BME280;60317;48.880;-0.862;2022-12-19T10:53:51;100090.16;;;17.99;41.53
72359;BME280;60317;48.880;-0.862;2022-12-19T10:56:20;100087.63;;;17.98;41.72
72359;BME280;60317;48.880;-0.862;2022-12-19T10:58:48;100098.19;;;17.99;41.67
72359;BME280;60317;48.880;-0.862;2022-12-19T11:01:18;100082.28;;;17.98;41.58
72359;BME280;60317;48.880;-0.862;2022-12-19T11:03:51;100091.00;;;18.00;41.64
72359;BME280;60317;48.880;-0.862;2022-12-19T11:08:57;100097.19;;;18.00;41.70
72359;BME280;60317;48.880;-0.862;2022-12-19T11:11:38;100083.97;;;17.99;41.56
72359;BME280;60317;48.880;-0.862;2022-12-19T11:14:25;100094.53;;;18.00;41.80
72359;BME280;60317;48.880;-0.862;2022-12-19T11:17:22;100087.50;;;17.99;41.73
72359;BME280;60317;48.880;-0.862;2022-12-19T11:20:10;100082.88;;;18.01;41.66
72359;BME280;60317;48.880;-0.862;2022-12-19T11:22:57;100077.53;;;18.01;41.69
72359;BME280;60317;48.880;-0.862;2022-12-19T11:25:45;100076.69;;;18.01;41.84
72359;BME280;60317;48.880;-0.862;2022-12-19T11:28:37;100060.63;;;18.01;41.59
72359;BME280;60317;48.880;-0.862;2022-12-19T11:31:24;100061.47;;;18.01;41.63
72359;BME280;60317;48.880;-0.862;2022-12-19T11:34:13;100071.34;;;18.01;41.69
72359;BME280;60317;48.880;-0.862;2022-12-19T11:36:43;100073.88;;;18.02;41.74
72359;BME280;60317;48.880;-0.862;2022-12-19T11:39:12;100073.03;;;18.02;41.75
72359;BME280;60317;48.880;-0.862;2022-12-19T11:41:43;100070.47;;;18.00;41.72
72359;BME280;60317;48.880;-0.862;2022-12-19T11:44:22;100073.88;;;18.02;41.71
72359;BME280;60317;48.880;-0.862;2022-12-19T11:46:51;100074.84;;;18.01;41.71
72359;BME280;60317;48.880;-0.862;2022-12-19T11:49:22;100078.38;;;18.02;41.76
72359;BME280;60317;48.880;-0.862;2022-12-19T11:51:53;100073.88;;;18.02;41.77
72359;BME280;60317;48.880;-0.862;2022-12-19T11:54:21;100065.84;;;18.02;41.84
72359;BME280;60317;48.880;-0.862;2022-12-19T11:56:49;100066.00;;;18.01;41.93
72359;BME280;60317;48.880;-0.862;2022-12-19T11:59:16;100059.66;;;18.02;41.96
72359;BME280;60317;48.880;-0.862;2022-12-19T12:01:45;100059.66;;;18.02;42.00
72359;BME280;60317;48.880;-0.862;2022-12-19T12:04:25;100056.13;;;18.01;42.09
72359;BME280;60317;48.880;-0.862;2022-12-19T12:07:01;100037.28;;;18.03;42.08
72359;BME280;60317;48.880;-0.862;2022-12-19T12:09:50;100020.38;;;18.02;41.81
72359;BME280;60317;48.880;-0.862;2022-12-19T12:12:42;99989.13;;;18.03;41.97
72359;BME280;60317;48.880;-0.862;2022-12-19T12:15:37;99984.63;;;18.03;42.12
72359;BME280;60317;48.880;-0.862;2022-12-19T12:18:35;99998.00;;;18.03;42.03
72359;BME280;60317;48.880;-0.862;2022-12-19T12:21:25;100015.03;;;18.02;41.99
72359;BME280;60317;48.880;-0.862;2022-12-19T12:24:28;100017.56;;;18.04;42.14
72359;BME280;60317;48.880;-0.862;2022-12-19T12:27:26;100006.03;;;18.03;42.10
72359;BME280;60317;48.880;-0.862;2022-12-19T12:30:16;100006.03;;;18.03;42.32
72359;BME280;60317;48.880;-0.862;2022-12-19T12:33:05;99996.19;;;18.04;42.39
72359;BME280;60317;48.880;-0.862;2022-12-19T12:35:59;99975.78;;;18.03;42.46
72359;BME280;60317;48.880;-0.862;2022-12-19T12:38:50;99955.22;;;18.03;42.49
72359;BME280;60317;48.880;-0.862;2022-12-19T12:41:25;99949.88;;;18.03;42.49
72359;BME280;60317;48.880;-0.862;2022-12-19T12:44:00;99947.19;;;18.03;42.49
72359;BME280;60317;48.880;-0.862;2022-12-19T12:46:32;99955.94;;;18.05;42.38
72359;BME280;60317;48.880;-0.862;2022-12-19T12:48:59;99947.94;;;18.05;42.48
72359;BME280;60317;48.880;-0.862;2022-12-19T12:51:27;99950.59;;;18.05;42.43
72359;BME280;60317;48.880;-0.862;2022-12-19T12:53:57;99958.75;;;18.04;42.24
72359;BME280;60317;48.880;-0.862;2022-12-19T12:56:26;99969.31;;;18.05;42.30
72359;BME280;60317;48.880;-0.862;2022-12-19T13:01:31;99961.31;;;18.05;42.67
72359;BME280;60317;48.880;-0.862;2022-12-19T13:04:01;99962.16;;;18.06;42.29
72359;BME280;60317;48.880;-0.862;2022-12-19T13:06:32;99975.66;;;18.04;42.45
72359;BME280;60317;48.880;-0.862;2022-12-19T13:09:01;99973.69;;;18.06;42.41
72359;BME280;60317;48.880;-0.862;2022-12-19T13:11:38;99971.00;;;18.06;42.70
72359;BME280;60317;48.880;-0.862;2022-12-19T13:14:05;99960.31;;;18.06;42.47
72359;BME280;60317;48.880;-0.862;2022-12-19T13:16:51;99961.16;;;18.07;42.61
72359;BME280;60317;48.880;-0.862;2022-12-19T13:19:19;99974.53;;;18.07;42.40
72359;BME280;60317;48.880;-0.862;2022-12-19T13:24:36;99967.50;;;18.06;42.54
72359;BME280;60317;48.880;-0.862;2022-12-19T13:27:04;99964.69;;;18.07;42.58